Smithfield, UT

12:30 PM MDT on August 20, 2014 (GMT -0600)
Logan-Cache | Change Station
CLOSE
Current Station
Airport
Location: Logan,
Elevation: 4455 ft
Nearby Weather Stations

Elev 4455 ft 41.79 °N, 111.85 °W | Updated 39 minutes ago

Clear
Clear
73 °F
Feels Like 73 °F
N
5
Wind Variable Wind from Variable

Today
High -- | Low -- °F
--% Chance of Precip.
Yesterday
High -- | Low -- °F
Precip. -- in
6:40 AM 8:19 PM
Waning Crescent, 20% visible
Pressure 29.86 in
Visibility 10.0 miles
Clouds Clear
Dew Point 52 °F
Humidity 48%
Rainfall 0.00 in
Snow Depth Not available.
UV 9 out of 12
Pollen 7.00 out of 12
PM2.5 Good
Flu Activity Not available.
METAR KLGU 201751Z AUTO VRB04KT 10SM CLR 23/11 A3000 RMK AO2 SLP112 T02280111 10244 20128 50008

More Conditions Fewer Conditions

Pressure 29.86 in
Visibility 10.0 miles
Clouds Clear
Dew Point 52 °F
Humidity 48%
Rainfall 0.00 in
Snow Depth Not available.
UV 9 out of 12
Pollen 7.00 out of 12
PM2.5 Good
Flu Activity Not available.
METAR KLGU 201751Z AUTO VRB04KT 10SM CLR 23/11 A3000 RMK AO2 SLP112 T02280111 10244 20128 50008

More Conditions Fewer Conditions

10-Day Weather Forecast

Almanac

Astronomy

Aug. 20, 2014 Rise Set
Actual Time 6:40 AM MDT 8:19 PM MDT
Civil Twilight 6:11 AM MDT 8:49 PM MDT
Nautical Twilight 5:35 AM MDT 9:25 PM MDT
Astronomical Twilight 4:57 AM MDT 10:03 PM MDT
Moon 2:22 AM MDT 5:09 PM MDT
Length of Visible Light 14h 38m
Length of Day
13h 39m
Tomorrow will be 2m 35s shorter.
Waning Crescent, 20% of the Moon is Illuminated
Today
Waning Crescent
Aug 25
New
Sep 2
First Quarter
Sep 8
Full
Sep 15
Last Quarter

Today's Extremes

State Highs State Lows

Community

WunderPhotos

Upload Photos

1,745,707 photos uploaded!

WunderBlogs® & News

Nearby

Air Quality

  Air Quality AQ Index Pollutant
Yesterday Good
PM2.5
Current Good
PM2.5

Snow Depth

Station Depth Elevation
Ben Lomond Trail 0 in 6000 ft
Parrish Creek 0 in 7740 ft
Louis Meadow 0 in 6700 ft
Chalk Creek #1 0 in 9100 ft
Smith & Morehouse 0 in 7600 ft

Earthquake Activity

City Distance Mag. Time & Date
No recent earthquake activity has been reported nearby.
Minimum magnitude displayed is 2.5.

Coastal Water Temperatures

Place Temperature
No Stations Reporting

Nearby Weather Stations